Carnival Splendor — 3EUS — position and weather

sailwx.info

Track history (hours):
 
Tides and Currents Weather Stations Pressure Air Temp Water Temp Dewpoint Dewpoint Depression Visibility Wind Speed Wind Dir Waves Ship Positions

Carnival Splendor

Last reported at 2014-Oct-02 09:21 UTC. Time now 2014-Oct-02 10:24 UTC.
Position N 43°51' W 064°12'.

Length 289 m; draft 8.3 m.

Type: Ship. MMSI: 372808000.

Date/timePositionNaut miles runAvg speedWind from/ knotsBaromVisibWave heightAir tempDewpointWater temp
2014-Oct-02 09:21N 43°51' W 064°12'244 7.2
2014-Sep-30 23:15N 43°26' W 069°48'1318.3
2014-Sep-30 22:33N 43°31' W 070°04'1111.0
2014-Sep-30 21:32N 43°40' W 070°14'0 0.1
2014-Sep-30 20:29N 43°40' W 070°14'0 0.0
2014-Sep-30 19:31N 43°40' W 070°14'0 0.0
2014-Sep-30 18:31N 43°40' W 070°14'0 0.0
2014-Sep-30 17:31N 43°40' W 070°14'0 0.0
2014-Sep-30 16:33N 43°40' W 070°14'0 0.0
2014-Sep-30 15:33N 43°40' W 070°14'0 0.0
2014-Sep-30 14:29N 43°40' W 070°14'0 0.0
2014-Sep-30 13:32N 43°40' W 070°14'0 0.0
2014-Sep-30 12:31N 43°40' W 070°14'0 0.0
2014-Sep-30 11:31N 43°40' W 070°14'0 0.0
2014-Sep-30 10:33N 43°40' W 070°14'7 6.6
2014-Sep-30 09:33N 43°34' W 070°09'9 9.4
2014-Sep-30 08:33N 43°27' W 070°01'47 7.3
2014-Sep-30 02:05N 42°42' W 070°23'4 7.8
2014-Sep-30 01:33N 42°39' W 070°27'8 7.8
2014-Sep-30 00:33N 42°33' W 070°34'8 8.0
2014-Sep-29 23:33N 42°28' W 070°42'8 8.3
2014-Sep-29 22:33N 42°24' W 070°52'8 7.7
2014-Sep-29 21:33N 42°21' W 071°01'1 0.5
2014-Sep-29 20:26N 42°21' W 071°02'0 0.0
2014-Sep-29 19:29N 42°21' W 071°02'0 0.0
2014-Sep-29 18:25N 42°21' W 071°02'0 0.0
2014-Sep-29 17:25N 42°21' W 071°02'0 0.0
2014-Sep-29 16:27N 42°21' W 071°02'0 0.0
2014-Sep-29 15:24N 42°21' W 071°02'0 0.0
2014-Sep-29 14:33N 42°21' W 071°02'0 0.0
2014-Sep-29 13:32N 42°21' W 071°02'0 0.0
2014-Sep-29 12:29N 42°21' W 071°02'0 0.2
2014-Sep-29 11:33N 42°21' W 071°02'9 9.1
2014-Sep-29 10:33N 42°24' W 070°50'8 8.3
2014-Sep-29 09:33N 42°22' W 070°39'1010.0
2014-Sep-29 08:33N 42°21' W 070°26'9 9.4
2014-Sep-29 07:33N 42°20' W 070°13'9 8.9
2014-Sep-29 06:33N 42°19' W 070°01'9 9.3
2014-Sep-29 05:33N 42°11' W 069°54'9 9.4
2014-Sep-29 04:33N 42°03' W 069°49'10 9.8
2014-Sep-29 03:33N 41°54' W 069°43'10 9.9
2014-Sep-29 02:33N 41°45' W 069°37'1010.4
2014-Sep-29 01:33N 41°36' W 069°30'1111.1
2014-Sep-29 00:33N 41°26' W 069°24'1110.8
2014-Sep-28 23:33N 41°17' W 069°17'10 9.8
2014-Sep-28 22:33N 41°08' W 069°11'10 9.7
2014-Sep-28 21:33N 40°59' W 069°06'1010.2
2014-Sep-28 20:33N 40°50' W 068°60'1110.5
2014-Sep-28 19:33N 40°40' W 068°56'1110.6
2014-Sep-28 18:33N 40°32' W 069°05'813.9
2014-Sep-28 18:00N 40°24' W 069°06'920.7 200 / 81020.010.8 0.519.016.016.0
2014-Sep-28 17:33N 40°26' W 069°18'1110.9
2014-Sep-28 16:33N 40°26' W 069°32'1111.0
2014-Sep-28 15:33N 40°26' W 069°46'1110.8
2014-Sep-28 14:33N 40°26' W 070°00'1110.8
2014-Sep-28 13:33N 40°25' W 070°15'1110.8
2014-Sep-28 12:33N 40°24' W 070°29'1110.9
2014-Sep-28 11:33N 40°24' W 070°43'1110.7
2014-Sep-28 10:33N 40°24' W 070°57'1110.9
2014-Sep-28 09:33N 40°24' W 071°11'1110.9
2014-Sep-28 08:33N 40°24' W 071°26'1111.0
2014-Sep-28 07:33N 40°23' W 071°40'1110.7
2014-Sep-28 06:33N 40°23' W 071°54'712.1
2014-Sep-28 06:00N 40°18' W 072°00'716.9 310 / 61021.010.8 0.520.015.017.0
2014-Sep-28 05:33N 40°22' W 072°08'1110.8
2014-Sep-28 04:34N 40°23' W 072°22'1110.8
2014-Sep-28 03:33N 40°22' W 072°37'1110.9
2014-Sep-28 02:33N 40°22' W 072°51'1110.5
2014-Sep-28 01:33N 40°22' W 073°05'1010.3
2014-Sep-28 00:33N 40°23' W 073°18'1010.1
2014-Sep-27 23:33N 40°24' W 073°31'10 9.9
2014-Sep-27 22:33N 40°26' W 073°44'1313.3
2014-Sep-27 21:33N 40°31' W 074°00'1412.8
2014-Sep-27 20:26N 40°46' W 074°01'1 0.1
2014-Sep-27 14:33N 40°46' W 073°60'0 0.0
2014-Sep-27 13:29N 40°46' W 073°60'0 0.0
2014-Sep-27 12:32N 40°46' W 073°60'0 0.0
2014-Sep-27 11:32N 40°46' W 073°60'1 1.5
2014-Sep-27 10:32N 40°45' W 074°01'1010.4
2014-Sep-27 09:33N 40°35' W 074°02'1312.2
2014-Sep-27 08:30N 40°27' W 073°48'1110.9
2014-Sep-27 07:31N 40°27' W 073°34'1616.6
2014-Sep-27 06:33N 40°29' W 073°13'1716.7
2014-Sep-27 05:33N 40°29' W 072°51'1616.5
2014-Sep-27 04:33N 40°30' W 072°30'1616.3
2014-Sep-27 03:33N 40°31' W 072°08'1717.1
2014-Sep-27 02:34N 40°31' W 071°46'1717.4
2014-Sep-27 01:33N 40°31' W 071°23'1717.4
2014-Sep-27 00:33N 40°32' W 070°60'1717.4
2014-Sep-26 23:33N 40°32' W 070°37'1817.7
2014-Sep-26 22:33N 40°33' W 070°14'1817.9
2014-Sep-26 21:33N 40°34' W 069°50'1817.7
2014-Sep-26 20:33N 40°34' W 069°27'1717.1
2014-Sep-26 19:33N 40°36' W 069°04'611.6
2014-Sep-26 19:00N 40°30' W 069°00'23418.0 050 / 301018.0 5.4 1.515.012.013.0
2014-Sep-26 06:00N 42°36' W 064°36'100 3.7 290 / 151023.010.8 0.515.012.015.0
2014-Sep-25 03:15N 43°37' W 066°24'31 1.5
2014-Sep-24 06:00N 44°00' W 066°54'13019.0 350 / 401026.010.8 1.014.0-6.012.0
2014-Sep-23 23:10N 43°26' W 069°47'1219.3
2014-Sep-23 22:33N 43°31' W 070°02'1212.3
2014-Sep-23 21:33N 43°40' W 070°14'1 0.7
2014-Sep-23 20:26N 43°39' W 070°15'0 0.0
2014-Sep-23 19:29N 43°39' W 070°15'0 0.0
2014-Sep-23 18:31N 43°39' W 070°15'0 0.0
2014-Sep-23 17:31N 43°39' W 070°15'0 0.0
2014-Sep-23 16:28N 43°39' W 070°15'0 0.0
2014-Sep-23 15:33N 43°39' W 070°15'0 0.0
2014-Sep-23 14:33N 43°39' W 070°15'0 0.0
2014-Sep-23 13:32N 43°39' W 070°15'0 0.0
2014-Sep-23 12:32N 43°39' W 070°15'0 0.0
2014-Sep-23 11:31N 43°39' W 070°15'0 0.0
2014-Sep-23 10:32N 43°39' W 070°15'5 5.1
2014-Sep-23 09:33N 43°36' W 070°10'1010.1
2014-Sep-23 08:33N 43°28' W 070°02'8 7.9
2014-Sep-23 07:31N 43°20' W 069°59'1610.3
2014-Sep-23 06:00N 43°06' W 069°48'36 8.2 290 / 301018.010.8 1.011.0-8.015.0
2014-Sep-23 01:33N 42°41' W 070°24'9 8.4
2014-Sep-23 00:31N 42°35' W 070°32'8 7.9
2014-Sep-22 23:33N 42°30' W 070°40'8 8.0
2014-Sep-22 22:33N 42°25' W 070°49'10 9.7
2014-Sep-22 21:33N 42°20' W 070°60'2 0.4
2014-Sep-22 17:19N 42°21' W 071°02'0 0.1
2014-Sep-22 11:32N 42°21' W 071°01'10 9.8
2014-Sep-22 10:33N 42°24' W 070°49'1211.6
2014-Sep-22 09:33N 42°22' W 070°34'  
Track history (hours):
 
Tides and Currents Weather Stations Pressure Air Temp Water Temp Dewpoint Dewpoint Depression Visibility Wind Speed Wind Dir Waves Ship Positions

Carnival Splendor

Last reported at 2014-Oct-02 09:21 UTC. Time now 2014-Oct-02 10:24 UTC.
Position N 43°51' W 064°12'.

Length 289 m; draft 8.3 m.

Type: Ship. MMSI: 372808000.

Date/timePositionNaut miles runAvg speedWind from/ knotsBaromVisibWave heightAir tempDewpointWater temp
2014-Oct-02 09:21N 43°51' W 064°12'244 7.2
2014-Sep-30 23:15N 43°26' W 069°48'1318.3
2014-Sep-30 22:33N 43°31' W 070°04'1111.0
2014-Sep-30 21:32N 43°40' W 070°14'0 0.1
2014-Sep-30 20:29N 43°40' W 070°14'0 0.0
2014-Sep-30 19:31N 43°40' W 070°14'0 0.0
2014-Sep-30 18:31N 43°40' W 070°14'0 0.0
2014-Sep-30 17:31N 43°40' W 070°14'0 0.0
2014-Sep-30 16:33N 43°40' W 070°14'0 0.0
2014-Sep-30 15:33N 43°40' W 070°14'0 0.0
2014-Sep-30 14:29N 43°40' W 070°14'0 0.0
2014-Sep-30 13:32N 43°40' W 070°14'0 0.0
2014-Sep-30 12:31N 43°40' W 070°14'0 0.0
2014-Sep-30 11:31N 43°40' W 070°14'0 0.0
2014-Sep-30 10:33N 43°40' W 070°14'7 6.6
2014-Sep-30 09:33N 43°34' W 070°09'9 9.4
2014-Sep-30 08:33N 43°27' W 070°01'47 7.3
2014-Sep-30 02:05N 42°42' W 070°23'4 7.8
2014-Sep-30 01:33N 42°39' W 070°27'8 7.8
2014-Sep-30 00:33N 42°33' W 070°34'8 8.0
2014-Sep-29 23:33N 42°28' W 070°42'8 8.3
2014-Sep-29 22:33N 42°24' W 070°52'8 7.7
2014-Sep-29 21:33N 42°21' W 071°01'1 0.5
2014-Sep-29 20:26N 42°21' W 071°02'0 0.0
2014-Sep-29 19:29N 42°21' W 071°02'0 0.0
2014-Sep-29 18:25N 42°21' W 071°02'0 0.0
2014-Sep-29 17:25N 42°21' W 071°02'0 0.0
2014-Sep-29 16:27N 42°21' W 071°02'0 0.0
2014-Sep-29 15:24N 42°21' W 071°02'0 0.0
2014-Sep-29 14:33N 42°21' W 071°02'0 0.0
2014-Sep-29 13:32N 42°21' W 071°02'0 0.0
2014-Sep-29 12:29N 42°21' W 071°02'0 0.2
2014-Sep-29 11:33N 42°21' W 071°02'9 9.1
2014-Sep-29 10:33N 42°24' W 070°50'8 8.3
2014-Sep-29 09:33N 42°22' W 070°39'1010.0
2014-Sep-29 08:33N 42°21' W 070°26'9 9.4
2014-Sep-29 07:33N 42°20' W 070°13'9 8.9
2014-Sep-29 06:33N 42°19' W 070°01'9 9.3
2014-Sep-29 05:33N 42°11' W 069°54'9 9.4
2014-Sep-29 04:33N 42°03' W 069°49'10 9.8
2014-Sep-29 03:33N 41°54' W 069°43'10 9.9
2014-Sep-29 02:33N 41°45' W 069°37'1010.4
2014-Sep-29 01:33N 41°36' W 069°30'1111.1
2014-Sep-29 00:33N 41°26' W 069°24'1110.8
2014-Sep-28 23:33N 41°17' W 069°17'10 9.8
2014-Sep-28 22:33N 41°08' W 069°11'10 9.7
2014-Sep-28 21:33N 40°59' W 069°06'1010.2
2014-Sep-28 20:33N 40°50' W 068°60'1110.5
2014-Sep-28 19:33N 40°40' W 068°56'1110.6
2014-Sep-28 18:33N 40°32' W 069°05'813.9
2014-Sep-28 18:00N 40°24' W 069°06'920.7 200 / 81020.010.8 0.519.016.016.0
2014-Sep-28 17:33N 40°26' W 069°18'1110.9
2014-Sep-28 16:33N 40°26' W 069°32'1111.0
2014-Sep-28 15:33N 40°26' W 069°46'1110.8
2014-Sep-28 14:33N 40°26' W 070°00'1110.8
2014-Sep-28 13:33N 40°25' W 070°15'1110.8
2014-Sep-28 12:33N 40°24' W 070°29'1110.9
2014-Sep-28 11:33N 40°24' W 070°43'1110.7
2014-Sep-28 10:33N 40°24' W 070°57'1110.9
2014-Sep-28 09:33N 40°24' W 071°11'1110.9
2014-Sep-28 08:33N 40°24' W 071°26'1111.0
2014-Sep-28 07:33N 40°23' W 071°40'1110.7
2014-Sep-28 06:33N 40°23' W 071°54'712.1
2014-Sep-28 06:00N 40°18' W 072°00'716.9 310 / 61021.010.8 0.520.015.017.0
2014-Sep-28 05:33N 40°22' W 072°08'1110.8
2014-Sep-28 04:34N 40°23' W 072°22'1110.8
2014-Sep-28 03:33N 40°22' W 072°37'1110.9
2014-Sep-28 02:33N 40°22' W 072°51'1110.5
2014-Sep-28 01:33N 40°22' W 073°05'1010.3
2014-Sep-28 00:33N 40°23' W 073°18'1010.1
2014-Sep-27 23:33N 40°24' W 073°31'10 9.9
2014-Sep-27 22:33N 40°26' W 073°44'1313.3
2014-Sep-27 21:33N 40°31' W 074°00'1412.8
2014-Sep-27 20:26N 40°46' W 074°01'1 0.1
2014-Sep-27 14:33N 40°46' W 073°60'0 0.0
2014-Sep-27 13:29N 40°46' W 073°60'0 0.0
2014-Sep-27 12:32N 40°46' W 073°60'0 0.0
2014-Sep-27 11:32N 40°46' W 073°60'1 1.5
2014-Sep-27 10:32N 40°45' W 074°01'1010.4
2014-Sep-27 09:33N 40°35' W 074°02'1312.2
2014-Sep-27 08:30N 40°27' W 073°48'1110.9
2014-Sep-27 07:31N 40°27' W 073°34'1616.6
2014-Sep-27 06:33N 40°29' W 073°13'1716.7
2014-Sep-27 05:33N 40°29' W 072°51'1616.5
2014-Sep-27 04:33N 40°30' W 072°30'1616.3
2014-Sep-27 03:33N 40°31' W 072°08'1717.1
2014-Sep-27 02:34N 40°31' W 071°46'1717.4
2014-Sep-27 01:33N 40°31' W 071°23'1717.4
2014-Sep-27 00:33N 40°32' W 070°60'1717.4
2014-Sep-26 23:33N 40°32' W 070°37'1817.7
2014-Sep-26 22:33N 40°33' W 070°14'1817.9
2014-Sep-26 21:33N 40°34' W 069°50'1817.7
2014-Sep-26 20:33N 40°34' W 069°27'1717.1
2014-Sep-26 19:33N 40°36' W 069°04'611.6
2014-Sep-26 19:00N 40°30' W 069°00'23418.0 050 / 301018.0 5.4 1.515.012.013.0
2014-Sep-26 06:00N 42°36' W 064°36'100 3.7 290 / 151023.010.8 0.515.012.015.0
2014-Sep-25 03:15N 43°37' W 066°24'31 1.5
2014-Sep-24 06:00N 44°00' W 066°54'13019.0 350 / 401026.010.8 1.014.0-6.012.0
2014-Sep-23 23:10N 43°26' W 069°47'1219.3
2014-Sep-23 22:33N 43°31' W 070°02'1212.3
2014-Sep-23 21:33N 43°40' W 070°14'1 0.7
2014-Sep-23 20:26N 43°39' W 070°15'0 0.0
2014-Sep-23 19:29N 43°39' W 070°15'0 0.0
2014-Sep-23 18:31N 43°39' W 070°15'0 0.0
2014-Sep-23 17:31N 43°39' W 070°15'0 0.0
2014-Sep-23 16:28N 43°39' W 070°15'0 0.0
2014-Sep-23 15:33N 43°39' W 070°15'0 0.0
2014-Sep-23 14:33N 43°39' W 070°15'0 0.0
2014-Sep-23 13:32N 43°39' W 070°15'0 0.0
2014-Sep-23 12:32N 43°39' W 070°15'0 0.0
2014-Sep-23 11:31N 43°39' W 070°15'0 0.0
2014-Sep-23 10:32N 43°39' W 070°15'5 5.1
2014-Sep-23 09:33N 43°36' W 070°10'1010.1
2014-Sep-23 08:33N 43°28' W 070°02'8 7.9
2014-Sep-23 07:31N 43°20' W 069°59'1610.3
2014-Sep-23 06:00N 43°06' W 069°48'36 8.2 290 / 301018.010.8 1.011.0-8.015.0
2014-Sep-23 01:33N 42°41' W 070°24'9 8.4
2014-Sep-23 00:31N 42°35' W 070°32'8 7.9
2014-Sep-22 23:33N 42°30' W 070°40'8 8.0
2014-Sep-22 22:33N 42°25' W 070°49'10 9.7
2014-Sep-22 21:33N 42°20' W 070°60'2 0.4
2014-Sep-22 17:19N 42°21' W 071°02'0 0.1
2014-Sep-22 11:32N 42°21' W 071°01'10 9.8
2014-Sep-22 10:33N 42°24' W 070°49'1211.6
2014-Sep-22 09:33N 42°22' W 070°34'  

Dump ship's entire track history